Time,TemperatureF,DewpointF,PressureIn,WindDirection,WindDirectionDegrees,WindSpeedMPH,WindSpeedGustMPH,Humidity,HourlyPrecipIn,Conditions,Clouds,dailyrainin,SoftwareType,DateUTC
2013-02-24 00:14:00,43.5,25.0,30.21,North,355,0.0,-999.0,48,-99.99,,,0.00,weatherlink.com 1.10,2013-02-24 08:14:00,
2013-02-24 00:29:00,43.8,24.0,30.20,NNE,12,0.0,-999.0,46,-99.99,,,0.00,weatherlink.com 1.10,2013-02-24 08:29:00,
2013-02-24 00:44:00,44.2,24.0,30.20,NNE,26,1.0,-999.0,45,-99.99,,,0.00,weatherlink.com 1.10,2013-02-24 08:44:00,
2013-02-24 00:59:00,44.2,23.0,30.20,NNE,19,8.0,-999.0,44,-99.99,,,0.00,weatherlink.com 1.10,2013-02-24 08:59:00,
2013-02-24 01:14:00,44.3,23.0,30.20,NE,37,5.0,-999.0,43,-99.99,,,0.00,weatherlink.com 1.10,2013-02-24 09:14:00,
2013-02-24 01:29:00,44.7,23.0,30.20,NNE,29,9.0,-999.0,42,-99.99,,,0.00,weatherlink.com 1.10,2013-02-24 09:29:00,
2013-02-24 01:44:00,44.9,22.0,30.19,NNE,22,7.0,-999.0,41,-99.99,,,0.00,weatherlink.com 1.10,2013-02-24 09:44:00,
2013-02-24 01:59:00,45.0,22.0,30.18,ENE,65,9.0,-999.0,40,-99.99,,,0.00,weatherlink.com 1.10,2013-02-24 09:59:00,
2013-02-24 02:14:00,45.7,20.0,30.17,ENE,57,8.0,-999.0,36,-99.99,,,0.00,weatherlink.com 1.10,2013-02-24 10:14:00,
2013-02-24 02:29:00,46.2,20.0,30.17,ENE,67,12.0,-999.0,35,-99.99,,,0.00,weatherlink.com 1.10,2013-02-24 10:29:00,
2013-02-24 02:44:00,46.0,20.0,30.17,ENE,76,9.0,-999.0,35,-99.99,,,0.00,weatherlink.com 1.10,2013-02-24 10:44:00,
2013-02-24 02:59:00,45.8,19.0,30.17,NE,42,10.0,-999.0,34,-99.99,,,0.00,weatherlink.com 1.10,2013-02-24 10:59:00,
2013-02-24 03:14:00,46.3,18.0,30.16,North,9,14.0,-999.0,32,-99.99,,,0.00,weatherlink.com 1.10,2013-02-24 11:14:00,
2013-02-24 03:29:00,46.0,17.0,30.16,NE,46,10.0,-999.0,32,-99.99,,,0.00,weatherlink.com 1.10,2013-02-24 11:29:00,
2013-02-24 03:44:00,45.8,18.0,30.17,ESE,107,4.0,-999.0,33,-99.99,,,0.00,weatherlink.com 1.10,2013-02-24 11:44:00,
2013-02-24 03:59:00,45.6,17.0,30.18,WNW,284,3.0,-999.0,32,-99.99,,,0.00,weatherlink.com 1.10,2013-02-24 11:59:00,
2013-02-24 04:14:00,45.3,17.0,30.17,East,96,2.0,-999.0,32,-99.99,,,0.00,weatherlink.com 1.10,2013-02-24 12:14:00,
2013-02-24 04:29:00,45.4,18.0,30.18,ESE,105,0.0,-999.0,33,-99.99,,,0.00,weatherlink.com 1.10,2013-02-24 12:29:00,
2013-02-24 04:44:00,45.7,16.0,30.18,NNW,329,0.0,-999.0,31,-99.99,,,0.00,weatherlink.com 1.10,2013-02-24 12:44:00,
2013-02-24 04:59:00,46.1,14.0,30.19,SE,135,4.0,-999.0,28,-99.99,,,0.00,weatherlink.com 1.10,2013-02-24 12:59:00,
2013-02-24 05:14:00,46.2,15.0,30.19,NNE,16,2.0,-999.0,29,-99.99,,,0.00,weatherlink.com 1.10,2013-02-24 13:14:00,
2013-02-24 05:29:00,46.0,16.0,30.20,NE,49,5.0,-999.0,30,-99.99,,,0.00,weatherlink.com 1.10,2013-02-24 13:29:00,
2013-02-24 05:44:00,45.7,16.0,30.20,North,360,0.0,-999.0,31,-99.99,,,0.00,weatherlink.com 1.10,2013-02-24 13:44:00,
2013-02-24 05:59:00,45.6,16.0,30.20,NE,45,0.0,-999.0,30,-99.99,,,0.00,weatherlink.com 1.10,2013-02-24 13:59:00,
2013-02-24 06:14:00,46.5,13.0,30.20,NNE,29,0.0,-999.0,26,-99.99,,,0.00,weatherlink.com 1.10,2013-02-24 14:14:00,
2013-02-24 06:29:00,46.8,13.0,30.21,NE,51,0.0,-999.0,26,-99.99,,,0.00,weatherlink.com 1.10,2013-02-24 14:29:00,
2013-02-24 06:44:00,46.6,14.0,30.21,ENE,59,0.0,-999.0,27,-99.99,,,0.00,weatherlink.com 1.10,2013-02-24 14:44:00,
2013-02-24 06:59:00,46.3,17.0,30.22,SE,126,0.0,-999.0,31,-99.99,,,0.00,weatherlink.com 1.10,2013-02-24 14:59:00,
2013-02-24 07:14:00,45.7,17.0,30.22,NNW,333,1.0,-999.0,32,-99.99,,,0.00,weatherlink.com 1.10,2013-02-24 15:14:00,
2013-02-24 07:29:00,45.2,19.0,30.23,NNE,32,4.0,-999.0,35,-99.99,,,0.00,weatherlink.com 1.10,2013-02-24 15:29:00,
2013-02-24 07:44:00,46.7,17.0,30.23,NE,34,0.0,-999.0,30,-99.99,,,0.00,weatherlink.com 1.10,2013-02-24 15:44:00,
2013-02-24 07:59:00,47.7,16.0,30.23,WNW,303,3.0,-999.0,28,-99.99,,,0.00,weatherlink.com 1.10,2013-02-24 15:59:00,
2013-02-24 08:14:00,48.7,16.0,30.23,ESE,105,0.0,-999.0,27,-99.99,,,0.00,weatherlink.com 1.10,2013-02-24 16:14:00,
2013-02-24 08:29:00,46.7,19.0,30.23,SE,132,0.0,-999.0,33,-99.99,,,0.00,weatherlink.com 1.10,2013-02-24 16:29:00,
2013-02-24 08:44:00,47.8,20.0,30.23,SE,142,5.0,-999.0,33,-99.99,,,0.00,weatherlink.com 1.10,2013-02-24 16:44:00,
2013-02-24 08:59:00,48.1,21.0,30.23,ESE,109,0.0,-999.0,34,-99.99,,,0.00,weatherlink.com 1.10,2013-02-24 16:59:00,
2013-02-24 09:14:00,48.5,20.0,30.24,SE,131,1.0,-999.0,32,-99.99,,,0.00,weatherlink.com 1.10,2013-02-24 17:14:00,
2013-02-24 09:29:00,50.0,22.0,30.24,SE,134,0.0,-999.0,33,-99.99,,,0.00,weatherlink.com 1.10,2013-02-24 17:29:00,
2013-02-24 09:44:00,50.5,24.0,30.25,SW,222,0.0,-999.0,35,-99.99,,,0.00,weatherlink.com 1.10,2013-02-24 17:44:00,
2013-02-24 09:59:00,50.3,23.0,30.24,SSE,152,2.0,-999.0,35,-99.99,,,0.00,weatherlink.com 1.10,2013-02-24 17:59:00,
2013-02-24 10:14:00,51.3,21.0,30.25,SE,146,0.0,-999.0,31,-99.99,,,0.00,weatherlink.com 1.10,2013-02-24 18:14:00,
2013-02-24 10:29:00,51.6,22.0,30.25,SSE,150,0.0,-999.0,31,-99.99,,,0.00,weatherlink.com 1.10,2013-02-24 18:29:00,
2013-02-24 10:44:00,52.4,24.0,30.25,South,182,0.0,-999.0,33,-99.99,,,0.00,weatherlink.com 1.10,2013-02-24 18:44:00,
2013-02-24 10:59:00,51.8,22.0,30.25,SW,222,0.0,-999.0,31,-99.99,,,0.00,weatherlink.com 1.10,2013-02-24 18:59:00,
2013-02-24 11:14:00,53.2,27.0,30.25,WSW,244,0.0,-999.0,36,-99.99,,,0.00,weatherlink.com 1.10,2013-02-24 19:14:00,
2013-02-24 11:29:00,52.6,26.0,30.25,WSW,245,0.0,-999.0,36,-99.99,,,0.00,weatherlink.com 1.10,2013-02-24 19:29:00,
2013-02-24 11:44:00,54.4,28.0,30.24,WSW,243,0.0,-999.0,36,-99.99,,,0.00,weatherlink.com 1.10,2013-02-24 19:44:00,
2013-02-24 11:59:00,55.1,28.0,30.23,SSE,163,0.0,-999.0,35,-99.99,,,0.00,weatherlink.com 1.10,2013-02-24 19:59:00,
2013-02-24 12:14:00,53.4,25.0,30.23,SE,141,0.0,-999.0,33,-99.99,,,0.00,weatherlink.com 1.10,2013-02-24 20:14:00,
2013-02-24 12:29:00,55.0,26.0,30.23,SE,141,0.0,-999.0,33,-99.99,,,0.00,weatherlink.com 1.10,2013-02-24 20:29:00,
2013-02-24 12:44:00,54.6,25.0,30.23,SE,133,0.0,-999.0,32,-99.99,,,0.00,weatherlink.com 1.10,2013-02-24 20:44:00,
2013-02-24 12:59:00,53.6,25.0,30.23,SSE,150,0.0,-999.0,33,-99.99,,,0.00,weatherlink.com 1.10,2013-02-24 20:59:00,
2013-02-24 13:14:00,54.1,24.0,30.22,SW,218,0.0,-999.0,31,-99.99,,,0.00,weatherlink.com 1.10,2013-02-24 21:14:00,
2013-02-24 13:29:00,54.5,27.0,30.22,SW,230,1.0,-999.0,35,-99.99,,,0.00,weatherlink.com 1.10,2013-02-24 21:29:00,
2013-02-24 13:44:00,52.9,24.0,30.22,WSW,257,0.0,-999.0,33,-99.99,,,0.00,weatherlink.com 1.10,2013-02-24 21:44:00,
2013-02-24 13:59:00,53.3,24.0,30.22,WSW,240,0.0,-999.0,32,-99.99,,,0.00,weatherlink.com 1.10,2013-02-24 21:59:00,
2013-02-24 14:14:00,54.0,26.0,30.22,SW,236,2.0,-999.0,34,-99.99,,,0.00,weatherlink.com 1.10,2013-02-24 22:14:00,
2013-02-24 14:29:00,52.3,22.0,30.22,SE,137,1.0,-999.0,31,-99.99,,,0.00,weatherlink.com 1.10,2013-02-24 22:29:00,
2013-02-24 14:44:00,53.8,25.0,30.22,SSE,148,0.0,-999.0,33,-99.99,,,0.00,weatherlink.com 1.10,2013-02-24 22:44:00,
2013-02-24 14:59:00,54.1,25.0,30.22,SSE,149,0.0,-999.0,33,-99.99,,,0.00,weatherlink.com 1.10,2013-02-24 22:59:00,
2013-02-24 15:14:00,54.2,25.0,30.22,SSW,194,0.0,-999.0,33,-99.99,,,0.00,weatherlink.com 1.10,2013-02-24 23:14:00,
2013-02-24 15:29:00,54.4,24.0,30.22,WSW,253,0.0,-999.0,31,-99.99,,,0.00,weatherlink.com 1.10,2013-02-24 23:29:00,
2013-02-24 15:44:00,53.6,23.0,30.21,SSW,213,0.0,-999.0,31,-99.99,,,0.00,weatherlink.com 1.10,2013-02-24 23:44:00,
2013-02-24 15:59:00,52.9,24.0,30.21,SSW,192,0.0,-999.0,32,-99.99,,,0.00,weatherlink.com 1.10,2013-02-24 23:59:00,
2013-02-24 16:14:00,51.7,29.0,30.21,South,188,0.0,-999.0,42,-99.99,,,0.00,weatherlink.com 1.10,2013-02-25 00:14:00,
2013-02-24 16:29:00,52.0,31.0,30.21,South,182,0.0,-999.0,44,-99.99,,,0.00,weatherlink.com 1.10,2013-02-25 00:29:00,
2013-02-24 16:44:00,51.0,32.0,30.22,South,187,0.0,-999.0,49,-99.99,,,0.00,weatherlink.com 1.10,2013-02-25 00:44:00,
2013-02-24 16:59:00,50.6,30.0,30.22,South,191,0.0,-999.0,46,-99.99,,,0.00,weatherlink.com 1.10,2013-02-25 00:59:00,
2013-02-24 17:14:00,51.0,27.0,30.23,South,191,0.0,-999.0,40,-99.99,,,0.00,weatherlink.com 1.10,2013-02-25 01:14:00,
2013-02-24 17:29:00,51.4,24.0,30.23,South,191,0.0,-999.0,34,-99.99,,,0.00,weatherlink.com 1.10,2013-02-25 01:29:00,
2013-02-24 17:44:00,51.4,24.0,30.23,South,191,0.0,-999.0,34,-99.99,,,0.00,weatherlink.com 1.10,2013-02-25 01:44:00,
2013-02-24 17:59:00,50.7,19.0,30.23,South,191,0.0,-999.0,29,-99.99,,,0.00,weatherlink.com 1.10,2013-02-25 01:59:00,
2013-02-24 18:14:00,50.1,19.0,30.24,South,191,0.0,-999.0,29,-99.99,,,0.00,weatherlink.com 1.10,2013-02-25 02:14:00,
2013-02-24 18:29:00,49.7,19.0,30.24,South,191,0.0,-999.0,30,-99.99,,,0.00,weatherlink.com 1.10,2013-02-25 02:29:00,
2013-02-24 18:44:00,49.3,20.0,30.25,South,191,0.0,-999.0,32,-99.99,,,0.00,weatherlink.com 1.10,2013-02-25 02:44:00,
2013-02-24 18:59:00,48.8,19.0,30.25,South,191,0.0,-999.0,31,-99.99,,,0.00,weatherlink.com 1.10,2013-02-25 02:59:00,
2013-02-24 19:14:00,48.5,18.0,30.25,South,191,0.0,-999.0,30,-99.99,,,0.00,weatherlink.com 1.10,2013-02-25 03:14:00,
2013-02-24 19:29:00,48.5,18.0,30.25,South,191,0.0,-999.0,30,-99.99,,,0.00,weatherlink.com 1.10,2013-02-25 03:29:00,
2013-02-24 19:44:00,48.7,18.0,30.25,South,191,0.0,-999.0,30,-99.99,,,0.00,weatherlink.com 1.10,2013-02-25 03:44:00,
2013-02-24 19:59:00,49.0,18.0,30.25,South,191,0.0,-999.0,29,-99.99,,,0.00,weatherlink.com 1.10,2013-02-25 03:59:00,
2013-02-24 20:14:00,49.1,18.0,30.27,South,191,0.0,-999.0,29,-99.99,,,0.00,weatherlink.com 1.10,2013-02-25 04:14:00,
2013-02-24 20:29:00,48.7,18.0,30.27,South,191,0.0,-999.0,29,-99.99,,,0.00,weatherlink.com 1.10,2013-02-25 04:29:00,
2013-02-24 20:44:00,48.7,19.0,30.27,South,191,0.0,-999.0,31,-99.99,,,0.00,weatherlink.com 1.10,2013-02-25 04:44:00,
2013-02-24 20:58:00,48.6,19.0,30.27,South,191,0.0,-999.0,31,-99.99,,,0.00,weatherlink.com 1.10,2013-02-25 04:58:00,
2013-02-24 21:13:00,49.1,20.0,30.28,South,186,0.0,-999.0,32,-99.99,,,0.00,weatherlink.com 1.10,2013-02-25 05:13:00,
2013-02-24 21:28:00,49.9,22.0,30.29,South,186,0.0,-999.0,33,-99.99,,,0.00,weatherlink.com 1.10,2013-02-25 05:28:00,
2013-02-24 21:43:00,50.2,20.0,30.30,South,186,0.0,-999.0,30,-99.99,,,0.00,weatherlink.com 1.10,2013-02-25 05:43:00,
2013-02-24 21:58:00,50.4,20.0,30.30,SE,142,0.0,-999.0,30,-99.99,,,0.00,weatherlink.com 1.10,2013-02-25 05:58:00,
2013-02-24 22:13:00,50.5,20.0,30.30,SE,142,0.0,-999.0,30,-99.99,,,0.00,weatherlink.com 1.10,2013-02-25 06:13:00,
2013-02-24 22:28:00,50.4,20.0,30.30,SE,142,0.0,-999.0,30,-99.99,,,0.00,weatherlink.com 1.10,2013-02-25 06:28:00,
2013-02-24 22:43:00,50.3,20.0,30.30,SE,141,0.0,-999.0,30,-99.99,,,0.00,weatherlink.com 1.10,2013-02-25 06:43:00,
2013-02-24 22:58:00,50.5,20.0,30.30,SE,141,0.0,-999.0,30,-99.99,,,0.00,weatherlink.com 1.10,2013-02-25 06:58:00,
2013-02-24 23:13:00,50.6,20.0,30.31,SE,142,0.0,-999.0,30,-99.99,,,0.00,weatherlink.com 1.10,2013-02-25 07:13:00,
2013-02-24 23:28:00,50.3,20.0,30.31,SE,142,0.0,-999.0,30,-99.99,,,0.00,weatherlink.com 1.10,2013-02-25 07:28:00,
2013-02-24 23:43:00,50.1,20.0,30.31,SE,142,0.0,-999.0,31,-99.99,,,0.00,weatherlink.com 1.10,2013-02-25 07:43:00,
2013-02-24 23:58:00,49.6,20.0,30.31,SE,141,0.0,-999.0,31,-99.99,,,0.00,weatherlink.com 1.10,2013-02-25 07:58:00,